sensor_id;sensor_type;location;lat;lon;timestamp;pressure;altitude;pressure_sealevel;temperature;humidity
41044;BME280;51680;49.806;18.774;2024-02-23T00:02:00;95401.47;;;10.66;70.57
41044;BME280;51680;49.806;18.774;2024-02-23T00:05:02;95390.66;;;10.61;71.13
41044;BME280;51680;49.806;18.774;2024-02-23T00:08:04;95404.69;;;10.60;71.36
41044;BME280;51680;49.806;18.774;2024-02-23T00:11:06;95387.19;;;10.70;71.09
41044;BME280;51680;49.806;18.774;2024-02-23T00:14:08;95375.38;;;10.84;70.03
41044;BME280;51680;49.806;18.774;2024-02-23T00:17:11;95380.97;;;10.89;70.40
41044;BME280;51680;49.806;18.774;2024-02-23T00:20:13;95388.28;;;10.85;70.06
41044;BME280;51680;49.806;18.774;2024-02-23T00:23:15;95382.41;;;10.83;69.73
41044;BME280;51680;49.806;18.774;2024-02-23T00:26:17;95373.00;;;10.90;70.06
41044;BME280;51680;49.806;18.774;2024-02-23T00:29:19;95366.53;;;10.77;69.82
41044;BME280;51680;49.806;18.774;2024-02-23T00:32:23;95367.72;;;10.82;69.78
41044;BME280;51680;49.806;18.774;2024-02-23T00:35:25;95366.69;;;10.75;69.63
41044;BME280;51680;49.806;18.774;2024-02-23T00:38:27;95374.81;;;10.72;70.09
41044;BME280;51680;49.806;18.774;2024-02-23T00:41:29;95368.16;;;10.78;70.12
41044;BME280;51680;49.806;18.774;2024-02-23T00:44:30;95386.00;;;10.82;70.09
41044;BME280;51680;49.806;18.774;2024-02-23T00:47:34;95381.66;;;10.73;70.57
41044;BME280;51680;49.806;18.774;2024-02-23T00:50:37;95385.31;;;10.63;70.35
41044;BME280;51680;49.806;18.774;2024-02-23T00:53:39;95372.25;;;10.45;70.82
41044;BME280;51680;49.806;18.774;2024-02-23T00:56:41;95385.16;;;10.64;70.85
41044;BME280;51680;49.806;18.774;2024-02-23T00:59:42;95372.03;;;10.74;70.28
41044;BME280;51680;49.806;18.774;2024-02-23T01:02:46;95376.97;;;10.77;70.29
41044;BME280;51680;49.806;18.774;2024-02-23T01:05:47;95379.44;;;10.78;70.97
41044;BME280;51680;49.806;18.774;2024-02-23T01:08:49;95368.69;;;10.81;70.61
41044;BME280;51680;49.806;18.774;2024-02-23T01:11:51;95382.19;;;10.77;70.29
41044;BME280;51680;49.806;18.774;2024-02-23T01:14:53;95361.31;;;10.77;70.62
41044;BME280;51680;49.806;18.774;2024-02-23T01:17:56;95380.59;;;10.49;71.39
41044;BME280;51680;49.806;18.774;2024-02-23T01:20:58;95367.69;;;10.47;71.32
41044;BME280;51680;49.806;18.774;2024-02-23T01:24:00;95368.66;;;10.46;71.94
41044;BME280;51680;49.806;18.774;2024-02-23T01:27:03;95358.47;;;10.53;71.70
41044;BME280;51680;49.806;18.774;2024-02-23T01:30:06;95352.78;;;10.57;71.16
41044;BME280;51680;49.806;18.774;2024-02-23T01:33:09;95376.25;;;10.57;71.49
41044;BME280;51680;49.806;18.774;2024-02-23T01:36:11;95375.22;;;10.50;71.96
41044;BME280;51680;49.806;18.774;2024-02-23T01:39:13;95373.28;;;10.52;71.80
41044;BME280;51680;49.806;18.774;2024-02-23T01:42:15;95382.69;;;10.45;71.95
41044;BME280;51680;49.806;18.774;2024-02-23T01:45:17;95365.06;;;10.47;71.70
41044;BME280;51680;49.806;18.774;2024-02-23T01:48:20;95371.97;;;10.48;71.46
41044;BME280;51680;49.806;18.774;2024-02-23T01:51:22;95376.50;;;10.19;72.98
41044;BME280;51680;49.806;18.774;2024-02-23T01:54:25;95386.97;;;10.10;72.89
41044;BME280;51680;49.806;18.774;2024-02-23T01:57:28;95358.34;;;10.27;72.75
41044;BME280;51680;49.806;18.774;2024-02-23T02:00:30;95376.66;;;10.18;73.24
41044;BME280;51680;49.806;18.774;2024-02-23T02:03:35;95374.56;;;10.21;73.15
41044;BME280;51680;49.806;18.774;2024-02-23T02:06:38;95333.47;;;10.15;73.22
41044;BME280;51680;49.806;18.774;2024-02-23T02:09:40;95365.13;;;10.20;72.70
41044;BME280;51680;49.806;18.774;2024-02-23T02:12:42;95366.84;;;10.29;72.72
41044;BME280;51680;49.806;18.774;2024-02-23T02:15:44;95359.97;;;10.28;73.06
41044;BME280;51680;49.806;18.774;2024-02-23T02:18:47;95362.41;;;10.39;72.21
41044;BME280;51680;49.806;18.774;2024-02-23T02:21:49;95387.94;;;10.36;72.10
41044;BME280;51680;49.806;18.774;2024-02-23T02:24:51;95368.06;;;10.52;71.89
41044;BME280;51680;49.806;18.774;2024-02-23T02:27:53;95367.25;;;10.52;71.55
41044;BME280;51680;49.806;18.774;2024-02-23T02:30:55;95373.00;;;10.55;71.38
41044;BME280;51680;49.806;18.774;2024-02-23T02:33:58;95359.28;;;10.53;71.28
41044;BME280;51680;49.806;18.774;2024-02-23T02:37:00;95368.94;;;10.43;70.98
41044;BME280;51680;49.806;18.774;2024-02-23T02:40:03;95341.72;;;10.28;72.06
41044;BME280;51680;49.806;18.774;2024-02-23T02:43:05;95351.13;;;10.39;71.55
41044;BME280;51680;49.806;18.774;2024-02-23T02:46:07;95342.41;;;10.30;71.49
41044;BME280;51680;49.806;18.774;2024-02-23T02:49:10;95342.56;;;10.46;71.63
41044;BME280;51680;49.806;18.774;2024-02-23T02:52:12;95331.13;;;10.39;71.72
41044;BME280;51680;49.806;18.774;2024-02-23T02:55:14;95342.44;;;10.48;71.43
41044;BME280;51680;49.806;18.774;2024-02-23T02:58:16;95350.69;;;10.43;71.16
41044;BME280;51680;49.806;18.774;2024-02-23T03:01:18;95361.91;;;10.53;71.96
41044;BME280;51680;49.806;18.774;2024-02-23T03:04:21;95367.03;;;10.45;71.41
41044;BME280;51680;49.806;18.774;2024-02-23T03:07:23;95366.56;;;10.50;71.65
41044;BME280;51680;49.806;18.774;2024-02-23T03:10:25;95366.59;;;10.67;71.35
41044;BME280;51680;49.806;18.774;2024-02-23T03:13:27;95382.78;;;10.71;71.37
41044;BME280;51680;49.806;18.774;2024-02-23T03:16:28;95389.50;;;10.73;71.90
41044;BME280;51680;49.806;18.774;2024-02-23T03:19:33;95394.69;;;10.56;72.10
41044;BME280;51680;49.806;18.774;2024-02-23T03:22:35;95409.25;;;10.58;72.24
41044;BME280;51680;49.806;18.774;2024-02-23T03:25:36;95413.53;;;10.67;71.87
41044;BME280;51680;49.806;18.774;2024-02-23T03:28:38;95413.38;;;10.78;71.49
41044;BME280;51680;49.806;18.774;2024-02-23T03:31:40;95420.66;;;10.75;71.85
41044;BME280;51680;49.806;18.774;2024-02-23T03:34:43;95418.97;;;10.56;72.52
41044;BME280;51680;49.806;18.774;2024-02-23T03:37:45;95427.28;;;10.42;72.62
41044;BME280;51680;49.806;18.774;2024-02-23T03:40:47;95430.00;;;10.50;72.96
41044;BME280;51680;49.806;18.774;2024-02-23T03:43:49;95431.16;;;10.65;72.32
41044;BME280;51680;49.806;18.774;2024-02-23T03:46:51;95445.03;;;10.66;73.00
41044;BME280;51680;49.806;18.774;2024-02-23T03:49:54;95449.78;;;10.70;73.63
41044;BME280;51680;49.806;18.774;2024-02-23T03:52:56;95459.94;;;10.73;73.74
41044;BME280;51680;49.806;18.774;2024-02-23T03:55:58;95454.50;;;10.67;73.49
41044;BME280;51680;49.806;18.774;2024-02-23T03:58:59;95450.75;;;10.69;73.88
41044;BME280;51680;49.806;18.774;2024-02-23T04:02:21;95441.28;;;10.51;75.08
41044;BME280;51680;49.806;18.774;2024-02-23T04:05:24;95447.34;;;10.42;75.23
41044;BME280;51680;49.806;18.774;2024-02-23T04:08:26;95449.22;;;10.49;75.01
41044;BME280;51680;49.806;18.774;2024-02-23T04:11:28;95447.59;;;10.48;75.41
41044;BME280;51680;49.806;18.774;2024-02-23T04:14:30;95453.22;;;10.44;75.83
41044;BME280;51680;49.806;18.774;2024-02-23T04:17:32;95457.34;;;10.46;75.35
41044;BME280;51680;49.806;18.774;2024-02-23T04:20:35;95457.63;;;10.43;76.36
41044;BME280;51680;49.806;18.774;2024-02-23T04:23:37;95457.94;;;10.40;76.29
41044;BME280;51680;49.806;18.774;2024-02-23T04:26:39;95471.69;;;10.33;76.44
41044;BME280;51680;49.806;18.774;2024-02-23T04:29:40;95451.06;;;10.39;76.48
41044;BME280;51680;49.806;18.774;2024-02-23T04:32:42;95459.63;;;10.22;77.29
41044;BME280;51680;49.806;18.774;2024-02-23T04:35:46;95462.69;;;10.18;77.88
41044;BME280;51680;49.806;18.774;2024-02-23T04:38:48;95465.19;;;10.10;78.04
41044;BME280;51680;49.806;18.774;2024-02-23T04:41:49;95471.50;;;10.07;78.14
41044;BME280;51680;49.806;18.774;2024-02-23T04:44:51;95468.75;;;10.09;77.87
41044;BME280;51680;49.806;18.774;2024-02-23T04:47:55;95472.56;;;10.14;78.11
41044;BME280;51680;49.806;18.774;2024-02-23T04:50:58;95474.25;;;10.06;79.01
41044;BME280;51680;49.806;18.774;2024-02-23T04:54:00;95487.41;;;10.04;78.58
41044;BME280;51680;49.806;18.774;2024-02-23T04:57:03;95480.13;;;9.98;78.96
41044;BME280;51680;49.806;18.774;2024-02-23T05:00:06;95482.75;;;10.08;78.86
41044;BME280;51680;49.806;18.774;2024-02-23T05:03:09;95471.66;;;9.96;79.89
41044;BME280;51680;49.806;18.774;2024-02-23T05:06:12;95471.66;;;9.87;80.61
41044;BME280;51680;49.806;18.774;2024-02-23T05:09:14;95480.88;;;9.72;81.41
41044;BME280;51680;49.806;18.774;2024-02-23T05:12:16;95476.50;;;9.72;81.07
41044;BME280;51680;49.806;18.774;2024-02-23T05:15:18;95485.94;;;9.64;83.32
41044;BME280;51680;49.806;18.774;2024-02-23T05:18:19;95477.75;;;9.49;83.58
41044;BME280;51680;49.806;18.774;2024-02-23T05:21:23;95487.63;;;9.65;83.17
41044;BME280;51680;49.806;18.774;2024-02-23T05:24:26;95486.09;;;9.53;83.38
41044;BME280;51680;49.806;18.774;2024-02-23T05:27:28;95497.06;;;9.56;84.00
41044;BME280;51680;49.806;18.774;2024-02-23T05:30:30;95491.03;;;9.65;82.99
41044;BME280;51680;49.806;18.774;2024-02-23T05:33:32;95497.88;;;9.66;83.14
41044;BME280;51680;49.806;18.774;2024-02-23T05:36:35;95496.22;;;9.65;82.96
41044;BME280;51680;49.806;18.774;2024-02-23T05:39:37;95497.59;;;9.69;82.80
41044;BME280;51680;49.806;18.774;2024-02-23T05:42:39;95496.78;;;9.69;83.04
41044;BME280;51680;49.806;18.774;2024-02-23T05:45:41;95504.44;;;9.70;82.59
41044;BME280;51680;49.806;18.774;2024-02-23T05:48:43;95500.63;;;9.74;82.48
41044;BME280;51680;49.806;18.774;2024-02-23T05:51:47;95524.47;;;9.60;82.90
41044;BME280;51680;49.806;18.774;2024-02-23T05:54:48;95521.72;;;9.71;82.69
41044;BME280;51680;49.806;18.774;2024-02-23T05:57:52;95524.22;;;9.63;83.49
41044;BME280;51680;49.806;18.774;2024-02-23T06:00:54;95528.72;;;9.61;83.91
41044;BME280;51680;49.806;18.774;2024-02-23T06:03:56;95529.94;;;9.57;84.48
41044;BME280;51680;49.806;18.774;2024-02-23T06:06:59;95544.50;;;9.60;84.80
41044;BME280;51680;49.806;18.774;2024-02-23T06:10:01;95544.66;;;9.58;84.88
41044;BME280;51680;49.806;18.774;2024-02-23T06:13:03;95546.84;;;9.53;85.38
41044;BME280;51680;49.806;18.774;2024-02-23T06:16:09;95554.34;;;9.37;86.58
41044;BME280;51680;49.806;18.774;2024-02-23T06:19:11;95555.59;;;9.43;86.68
41044;BME280;51680;49.806;18.774;2024-02-23T06:22:14;95561.91;;;9.40;87.12
41044;BME280;51680;49.806;18.774;2024-02-23T06:25:17;95569.84;;;9.39;86.98
41044;BME280;51680;49.806;18.774;2024-02-23T06:28:19;95570.00;;;9.47;86.95
41044;BME280;51680;49.806;18.774;2024-02-23T06:31:21;95582.19;;;9.37;87.35
41044;BME280;51680;49.806;18.774;2024-02-23T06:34:23;95590.00;;;9.46;86.59
41044;BME280;51680;49.806;18.774;2024-02-23T06:37:26;95589.59;;;9.60;86.02
41044;BME280;51680;49.806;18.774;2024-02-23T06:40:28;95603.03;;;9.65;85.75
41044;BME280;51680;49.806;18.774;2024-02-23T06:43:30;95597.28;;;9.71;86.84
41044;BME280;51680;49.806;18.774;2024-02-23T06:46:32;95620.72;;;9.81;85.86
41044;BME280;51680;49.806;18.774;2024-02-23T06:49:34;95621.69;;;9.89;85.47
41044;BME280;51680;49.806;18.774;2024-02-23T06:52:37;95630.06;;;9.83;86.21
41044;BME280;51680;49.806;18.774;2024-02-23T06:55:39;95637.75;;;9.85;86.96
41044;BME280;51680;49.806;18.774;2024-02-23T06:58:42;95638.81;;;9.92;85.73
41044;BME280;51680;49.806;18.774;2024-02-23T07:01:50;95650.91;;;9.93;86.63
41044;BME280;51680;49.806;18.774;2024-02-23T07:04:52;95661.34;;;10.02;86.04
41044;BME280;51680;49.806;18.774;2024-02-23T07:07:56;95671.53;;;10.15;86.11
41044;BME280;51680;49.806;18.774;2024-02-23T07:10:58;95688.00;;;10.15;85.19
41044;BME280;51680;49.806;18.774;2024-02-23T07:14:00;95705.97;;;10.28;85.12
41044;BME280;51680;49.806;18.774;2024-02-23T07:17:02;95701.84;;;10.44;84.87
41044;BME280;51680;49.806;18.774;2024-02-23T07:20:05;95696.34;;;10.57;84.66
41044;BME280;51680;49.806;18.774;2024-02-23T07:23:08;95697.81;;;10.69;84.14
41044;BME280;51680;49.806;18.774;2024-02-23T07:26:10;95708.53;;;10.75;84.10
41044;BME280;51680;49.806;18.774;2024-02-23T07:29:12;95701.09;;;10.80;84.26
41044;BME280;51680;49.806;18.774;2024-02-23T07:32:14;95723.75;;;10.89;84.29
41044;BME280;51680;49.806;18.774;2024-02-23T07:35:16;95709.72;;;11.00;84.17
41044;BME280;51680;49.806;18.774;2024-02-23T07:38:19;95724.34;;;11.10;83.64
41044;BME280;51680;49.806;18.774;2024-02-23T07:41:21;95709.97;;;11.06;84.15
41044;BME280;51680;49.806;18.774;2024-02-23T07:44:23;95709.03;;;10.88;84.28
41044;BME280;51680;49.806;18.774;2024-02-23T07:47:26;95709.34;;;10.66;84.43
41044;BME280;51680;49.806;18.774;2024-02-23T07:50:29;95715.00;;;10.52;85.11
41044;BME280;51680;49.806;18.774;2024-02-23T07:53:32;95720.78;;;10.56;84.87
41044;BME280;51680;49.806;18.774;2024-02-23T07:56:34;95715.81;;;10.62;84.72
41044;BME280;51680;49.806;18.774;2024-02-23T07:59:35;95714.72;;;10.55;85.25
41044;BME280;51680;49.806;18.774;2024-02-23T08:02:37;95710.19;;;10.57;85.03
41044;BME280;51680;49.806;18.774;2024-02-23T08:05:39;95715.41;;;10.57;84.55
41044;BME280;51680;49.806;18.774;2024-02-23T08:08:42;95718.19;;;10.37;84.88
41044;BME280;51680;49.806;18.774;2024-02-23T08:11:44;95719.13;;;10.26;84.99
41044;BME280;51680;49.806;18.774;2024-02-23T08:14:47;95711.47;;;10.15;85.21
41044;BME280;51680;49.806;18.774;2024-02-23T08:17:51;95717.72;;;10.03;85.21
41044;BME280;51680;49.806;18.774;2024-02-23T08:20:52;95714.56;;;10.00;85.19
41044;BME280;51680;49.806;18.774;2024-02-23T08:23:56;95720.91;;;10.07;84.97
41044;BME280;51680;49.806;18.774;2024-02-23T08:26:58;95719.81;;;10.09;84.62
41044;BME280;51680;49.806;18.774;2024-02-23T08:29:59;95727.91;;;10.16;84.07
41044;BME280;51680;49.806;18.774;2024-02-23T08:33:01;95720.09;;;10.25;84.57
41044;BME280;51680;49.806;18.774;2024-02-23T08:36:04;95729.72;;;10.15;84.29
41044;BME280;51680;49.806;18.774;2024-02-23T08:39:07;95735.84;;;10.14;84.17
41044;BME280;51680;49.806;18.774;2024-02-23T08:42:09;95735.31;;;10.11;84.11
41044;BME280;51680;49.806;18.774;2024-02-23T08:45:11;95734.91;;;10.15;84.20
41044;BME280;51680;49.806;18.774;2024-02-23T08:48:13;95737.78;;;10.22;84.06
41044;BME280;51680;49.806;18.774;2024-02-23T08:51:16;95736.56;;;10.26;84.29
41044;BME280;51680;49.806;18.774;2024-02-23T08:54:19;95737.53;;;10.34;83.97
41044;BME280;51680;49.806;18.774;2024-02-23T08:57:21;95736.03;;;10.41;83.98
41044;BME280;51680;49.806;18.774;2024-02-23T09:00:23;95744.28;;;10.37;83.80
41044;BME280;51680;49.806;18.774;2024-02-23T09:03:25;95752.22;;;10.35;84.17
41044;BME280;51680;49.806;18.774;2024-02-23T09:06:27;95757.84;;;10.21;84.53
41044;BME280;51680;49.806;18.774;2024-02-23T09:09:30;95762.34;;;10.19;84.71
41044;BME280;51680;49.806;18.774;2024-02-23T09:12:32;95773.63;;;10.29;84.76
41044;BME280;51680;49.806;18.774;2024-02-23T09:15:34;95779.78;;;10.19;84.48
41044;BME280;51680;49.806;18.774;2024-02-23T09:18:36;95787.63;;;10.28;84.50
41044;BME280;51680;49.806;18.774;2024-02-23T09:21:37;95791.31;;;10.16;84.87
41044;BME280;51680;49.806;18.774;2024-02-23T09:24:41;95797.25;;;10.28;84.86
41044;BME280;51680;49.806;18.774;2024-02-23T09:27:43;95796.56;;;10.35;85.06
41044;BME280;51680;49.806;18.774;2024-02-23T09:30:45;95804.09;;;10.38;85.20
41044;BME280;51680;49.806;18.774;2024-02-23T09:33:47;95799.72;;;10.48;84.89
41044;BME280;51680;49.806;18.774;2024-02-23T09:36:50;95804.81;;;10.59;85.18
41044;BME280;51680;49.806;18.774;2024-02-23T09:39:53;95805.22;;;10.45;85.03
41044;BME280;51680;49.806;18.774;2024-02-23T09:42:56;95806.84;;;10.46;85.54
41044;BME280;51680;49.806;18.774;2024-02-23T09:45:59;95817.56;;;10.24;86.55
41044;BME280;51680;49.806;18.774;2024-02-23T09:49:02;95809.84;;;10.32;85.48
41044;BME280;51680;49.806;18.774;2024-02-23T09:52:07;95817.97;;;10.29;86.50
41044;BME280;51680;49.806;18.774;2024-02-23T09:55:11;95817.00;;;10.30;86.40
41044;BME280;51680;49.806;18.774;2024-02-23T09:58:13;95818.78;;;10.20;86.64
41044;BME280;51680;49.806;18.774;2024-02-23T10:01:28;95816.66;;;10.05;87.53
41044;BME280;51680;49.806;18.774;2024-02-23T10:04:31;95811.75;;;10.21;87.39
41044;BME280;51680;49.806;18.774;2024-02-23T10:07:33;95814.41;;;10.00;88.55
41044;BME280;51680;49.806;18.774;2024-02-23T10:10:37;95816.53;;;10.06;88.76
41044;BME280;51680;49.806;18.774;2024-02-23T10:13:41;95822.59;;;10.16;88.43
41044;BME280;51680;49.806;18.774;2024-02-23T10:16:43;95816.47;;;10.27;87.89
41044;BME280;51680;49.806;18.774;2024-02-23T10:19:45;95819.28;;;10.14;88.00
41044;BME280;51680;49.806;18.774;2024-02-23T10:22:48;95820.28;;;10.23;87.20
41044;BME280;51680;49.806;18.774;2024-02-23T10:25:51;95830.59;;;10.24;87.54
41044;BME280;51680;49.806;18.774;2024-02-23T10:28:53;95828.25;;;10.21;87.06
41044;BME280;51680;49.806;18.774;2024-02-23T10:31:57;95828.81;;;10.34;86.46
41044;BME280;51680;49.806;18.774;2024-02-23T10:35:00;95835.13;;;10.41;85.59
41044;BME280;51680;49.806;18.774;2024-02-23T10:38:05;95836.78;;;10.42;85.29
41044;BME280;51680;49.806;18.774;2024-02-23T10:41:12;95840.75;;;10.46;85.15
41044;BME280;51680;49.806;18.774;2024-02-23T10:44:16;95849.72;;;10.53;84.91
41044;BME280;51680;49.806;18.774;2024-02-23T10:47:19;95846.13;;;10.54;84.92
41044;BME280;51680;49.806;18.774;2024-02-23T10:50:23;95846.69;;;10.67;84.72
41044;BME280;51680;49.806;18.774;2024-02-23T10:53:26;95836.94;;;10.69;84.52
41044;BME280;51680;49.806;18.774;2024-02-23T10:56:50;95836.13;;;10.78;83.88
41044;BME280;51680;49.806;18.774;2024-02-23T10:59:52;95823.34;;;10.75;83.94
41044;BME280;51680;49.806;18.774;2024-02-23T11:02:54;95828.84;;;10.72;84.14
41044;BME280;51680;49.806;18.774;2024-02-23T11:05:57;95827.19;;;10.71;84.51
41044;BME280;51680;49.806;18.774;2024-02-23T11:09:06;95833.22;;;10.81;85.06
41044;BME280;51680;49.806;18.774;2024-02-23T11:12:10;95839.03;;;10.85;84.91
41044;BME280;51680;49.806;18.774;2024-02-23T11:15:26;95836.94;;;10.88;84.14
41044;BME280;51680;49.806;18.774;2024-02-23T11:18:28;95835.97;;;10.89;84.63
41044;BME280;51680;49.806;18.774;2024-02-23T11:21:34;95832.53;;;10.98;84.79
41044;BME280;51680;49.806;18.774;2024-02-23T11:24:42;95832.00;;;10.85;83.35
41044;BME280;51680;49.806;18.774;2024-02-23T11:27:49;95835.56;;;10.84;83.94
41044;BME280;51680;49.806;18.774;2024-02-23T11:30:51;95845.56;;;11.08;84.31
41044;BME280;51680;49.806;18.774;2024-02-23T11:33:54;95846.41;;;11.08;83.59
41044;BME280;51680;49.806;18.774;2024-02-23T11:36:56;95843.13;;;11.06;83.29
41044;BME280;51680;49.806;18.774;2024-02-23T11:40:00;95860.31;;;11.09;83.57
41044;BME280;51680;49.806;18.774;2024-02-23T11:43:05;95867.88;;;11.02;83.80
41044;BME280;51680;49.806;18.774;2024-02-23T11:46:07;95861.41;;;11.06;83.99
41044;BME280;51680;49.806;18.774;2024-02-23T11:49:09;95875.53;;;11.13;83.41
41044;BME280;51680;49.806;18.774;2024-02-23T11:52:11;95879.94;;;11.22;82.93
41044;BME280;51680;49.806;18.774;2024-02-23T11:55:17;95887.09;;;11.39;83.06
41044;BME280;51680;49.806;18.774;2024-02-23T11:58:23;95891.44;;;11.48;82.96
41044;BME280;51680;49.806;18.774;2024-02-23T12:01:25;95876.88;;;11.46;82.81
41044;BME280;51680;49.806;18.774;2024-02-23T12:04:30;95867.13;;;11.38;82.97
41044;BME280;51680;49.806;18.774;2024-02-23T12:07:32;95861.38;;;11.25;83.19
41044;BME280;51680;49.806;18.774;2024-02-23T12:10:35;95849.03;;;11.08;83.38
41044;BME280;51680;49.806;18.774;2024-02-23T12:13:39;95851.06;;;11.14;83.49
41044;BME280;51680;49.806;18.774;2024-02-23T12:16:41;95861.25;;;11.17;83.31
41044;BME280;51680;49.806;18.774;2024-02-23T12:19:43;95864.00;;;11.16;82.22
41044;BME280;51680;49.806;18.774;2024-02-23T12:22:47;95852.84;;;11.23;81.59
41044;BME280;51680;49.806;18.774;2024-02-23T12:25:52;95852.03;;;11.13;81.76
41044;BME280;51680;49.806;18.774;2024-02-23T12:29:00;95864.81;;;11.26;82.26
41044;BME280;51680;49.806;18.774;2024-02-23T12:32:04;95868.94;;;11.19;82.89
41044;BME280;51680;49.806;18.774;2024-02-23T12:35:06;95874.72;;;11.22;82.98
41044;BME280;51680;49.806;18.774;2024-02-23T12:38:08;95877.59;;;11.29;82.77
41044;BME280;51680;49.806;18.774;2024-02-23T12:41:09;95883.22;;;11.05;82.70
41044;BME280;51680;49.806;18.774;2024-02-23T12:44:13;95878.69;;;10.98;82.98
41044;BME280;51680;49.806;18.774;2024-02-23T12:47:16;95873.78;;;10.76;82.94
41044;BME280;51680;49.806;18.774;2024-02-23T12:50:17;95867.88;;;10.83;83.22
41044;BME280;51680;49.806;18.774;2024-02-23T12:53:33;95872.78;;;10.67;82.78
41044;BME280;51680;49.806;18.774;2024-02-23T12:56:36;95863.59;;;10.73;83.30
41044;BME280;51680;49.806;18.774;2024-02-23T12:59:39;95854.25;;;10.61;83.47
41044;BME280;51680;49.806;18.774;2024-02-23T13:02:41;95859.72;;;10.67;83.61
41044;BME280;51680;49.806;18.774;2024-02-23T13:05:43;95868.41;;;10.77;83.29
41044;BME280;51680;49.806;18.774;2024-02-23T13:08:45;95867.28;;;10.70;83.72
41044;BME280;51680;49.806;18.774;2024-02-23T13:11:48;95862.63;;;10.74;84.20
41044;BME280;51680;49.806;18.774;2024-02-23T13:14:52;95877.06;;;10.78;84.04
41044;BME280;51680;49.806;18.774;2024-02-23T13:17:53;95873.63;;;10.87;83.02
41044;BME280;51680;49.806;18.774;2024-02-23T13:20:57;95885.72;;;10.78;82.94
41044;BME280;51680;49.806;18.774;2024-02-23T13:23:59;95885.84;;;10.86;82.76
41044;BME280;51680;49.806;18.774;2024-02-23T13:27:01;95889.56;;;10.74;82.92
41044;BME280;51680;49.806;18.774;2024-02-23T13:30:05;95894.78;;;10.74;83.12
41044;BME280;51680;49.806;18.774;2024-02-23T13:33:08;95889.44;;;10.76;82.90
41044;BME280;51680;49.806;18.774;2024-02-23T13:36:11;95893.16;;;10.92;82.71
41044;BME280;51680;49.806;18.774;2024-02-23T13:39:13;95895.31;;;10.78;82.56
41044;BME280;51680;49.806;18.774;2024-02-23T13:42:15;95887.38;;;10.70;83.13
41044;BME280;51680;49.806;18.774;2024-02-23T13:45:19;95895.84;;;10.62;83.58
41044;BME280;51680;49.806;18.774;2024-02-23T13:48:21;95880.34;;;10.61;83.98
41044;BME280;51680;49.806;18.774;2024-02-23T13:51:23;95879.63;;;10.59;84.67
41044;BME280;51680;49.806;18.774;2024-02-23T13:54:25;95889.66;;;10.54;84.62
41044;BME280;51680;49.806;18.774;2024-02-23T13:57:27;95895.00;;;10.52;84.73
41044;BME280;51680;49.806;18.774;2024-02-23T14:00:30;95892.00;;;10.66;84.44
41044;BME280;51680;49.806;18.774;2024-02-23T14:03:32;95901.75;;;10.64;84.81
41044;BME280;51680;49.806;18.774;2024-02-23T14:06:34;95897.22;;;10.66;84.47
41044;BME280;51680;49.806;18.774;2024-02-23T14:09:36;95898.34;;;10.73;83.95
41044;BME280;51680;49.806;18.774;2024-02-23T14:12:38;95900.25;;;10.71;84.31
41044;BME280;51680;49.806;18.774;2024-02-23T14:15:41;95904.00;;;10.78;84.22
41044;BME280;51680;49.806;18.774;2024-02-23T14:18:43;95892.31;;;10.82;84.79
41044;BME280;51680;49.806;18.774;2024-02-23T14:21:45;95886.53;;;10.79;84.01
41044;BME280;51680;49.806;18.774;2024-02-23T14:24:49;95889.28;;;10.77;84.00
41044;BME280;51680;49.806;18.774;2024-02-23T14:27:50;95876.91;;;10.60;84.37
41044;BME280;51680;49.806;18.774;2024-02-23T14:30:54;95885.69;;;10.59;84.61
41044;BME280;51680;49.806;18.774;2024-02-23T14:33:56;95891.75;;;10.69;84.38
41044;BME280;51680;49.806;18.774;2024-02-23T14:36:58;95893.94;;;10.74;84.14
41044;BME280;51680;49.806;18.774;2024-02-23T14:39:59;95887.91;;;10.83;83.81
41044;BME280;51680;49.806;18.774;2024-02-23T14:43:01;95897.81;;;10.79;83.81
41044;BME280;51680;49.806;18.774;2024-02-23T14:46:04;95901.78;;;10.83;84.41
41044;BME280;51680;49.806;18.774;2024-02-23T14:49:07;95890.38;;;10.75;84.12
41044;BME280;51680;49.806;18.774;2024-02-23T14:52:09;95891.91;;;10.77;84.69
41044;BME280;51680;49.806;18.774;2024-02-23T14:55:11;95898.34;;;10.73;84.60
41044;BME280;51680;49.806;18.774;2024-02-23T14:58:12;95893.66;;;10.48;85.27
41044;BME280;51680;49.806;18.774;2024-02-23T15:01:16;95893.34;;;10.51;85.37
41044;BME280;51680;49.806;18.774;2024-02-23T15:04:18;95887.16;;;10.52;85.36
41044;BME280;51680;49.806;18.774;2024-02-23T15:07:19;95884.44;;;10.44;85.37
41044;BME280;51680;49.806;18.774;2024-02-23T15:10:21;95895.50;;;10.27;86.61
41044;BME280;51680;49.806;18.774;2024-02-23T15:13:23;95905.38;;;10.33;86.66
41044;BME280;51680;49.806;18.774;2024-02-23T15:16:27;95902.41;;;10.38;86.82
41044;BME280;51680;49.806;18.774;2024-02-23T15:19:31;95902.78;;;10.33;87.37
41044;BME280;51680;49.806;18.774;2024-02-23T15:22:33;95900.88;;;10.35;87.23
41044;BME280;51680;49.806;18.774;2024-02-23T15:25:35;95905.66;;;10.30;87.72
41044;BME280;51680;49.806;18.774;2024-02-23T15:28:37;95905.97;;;10.37;87.24
41044;BME280;51680;49.806;18.774;2024-02-23T15:31:40;95908.41;;;10.38;87.53
41044;BME280;51680;49.806;18.774;2024-02-23T15:34:42;95912.41;;;10.33;87.91
41044;BME280;51680;49.806;18.774;2024-02-23T15:37:44;95915.88;;;10.52;86.36
41044;BME280;51680;49.806;18.774;2024-02-23T15:40:46;95914.09;;;10.53;86.56
41044;BME280;51680;49.806;18.774;2024-02-23T15:43:49;95910.94;;;10.49;86.40
41044;BME280;51680;49.806;18.774;2024-02-23T15:46:52;95907.91;;;10.54;86.34
41044;BME280;51680;49.806;18.774;2024-02-23T15:49:54;95909.03;;;10.70;85.98
41044;BME280;51680;49.806;18.774;2024-02-23T15:52:56;95921.03;;;10.82;85.20
41044;BME280;51680;49.806;18.774;2024-02-23T15:55:57;95913.06;;;10.93;84.83